createdAt,value
2022-10-23T00:00:19.707Z,89.82
2022-10-23T00:03:44.460Z,89.80
2022-10-23T00:07:05.856Z,89.65
2022-10-23T00:10:29.387Z,89.43
2022-10-23T00:13:54.849Z,89.20
2022-10-23T00:17:16.217Z,89.92
2022-10-23T00:20:37.653Z,89.42
2022-10-23T00:23:59.479Z,89.50
2022-10-23T00:27:21.269Z,89.93
2022-10-23T00:30:44.595Z,90.27
2022-10-23T00:34:08.392Z,90.95
2022-10-23T00:37:30.385Z,92.11
2022-10-23T00:40:52.547Z,91.49
2022-10-23T00:44:47.611Z,92.30
2022-10-23T00:48:10.954Z,93.09
2022-10-23T00:51:37.201Z,93.25
2022-10-23T00:54:59.371Z,93.81
2022-10-23T00:58:22.231Z,93.49
2022-10-23T01:01:43.977Z,93.88
2022-10-23T01:05:08.940Z,94.28
2022-10-23T01:08:36.418Z,93.97
2022-10-23T01:12:02.224Z,93.84
2022-10-23T01:15:30.466Z,94.49
2022-10-23T01:18:56.410Z,94.27
2022-10-23T01:22:38.828Z,94.04
2022-10-23T01:26:11.320Z,94.13
2022-10-23T01:29:40.384Z,93.83
2022-10-23T01:33:07.852Z,93.81
2022-10-23T01:36:40.840Z,93.53
2022-10-23T01:40:06.426Z,93.78
2022-10-23T01:43:33.700Z,93.69
2022-10-23T01:46:58.770Z,93.71
2022-10-23T01:50:25.177Z,93.38
2022-10-23T01:53:59.217Z,93.09
2022-10-23T01:57:23.405Z,93.47
2022-10-23T02:00:46.664Z,92.87
2022-10-23T02:04:12.736Z,93.44
2022-10-23T02:07:35.156Z,92.68
2022-10-23T02:11:06.888Z,92.30
2022-10-23T02:14:37.581Z,92.27
2022-10-23T02:18:09.583Z,92.02
2022-10-23T02:21:40.121Z,92.14
2022-10-23T02:25:10.070Z,91.70
2022-10-23T02:28:41.378Z,91.87
2022-10-23T02:32:04.794Z,91.90
2022-10-23T02:35:27.049Z,91.10
2022-10-23T02:38:59.329Z,91.45
2022-10-23T02:42:24.982Z,91.84
2022-10-23T02:45:55.101Z,91.65
2022-10-23T02:49:21.085Z,91.66
2022-10-23T02:52:52.251Z,91.69
2022-10-23T02:56:21.712Z,91.80
2022-10-23T02:59:46.454Z,91.87
2022-10-23T03:03:14.449Z,91.65
2022-10-23T03:06:36.817Z,91.82
2022-10-23T03:09:58.248Z,91.74
2022-10-23T03:13:21.708Z,92.07
2022-10-23T03:16:43.703Z,91.83
2022-10-23T03:20:05.789Z,91.35
2022-10-23T03:23:27.342Z,91.71
2022-10-23T03:26:49.130Z,91.13
2022-10-23T03:30:13.339Z,91.20
2022-10-23T03:33:35.546Z,91.08
2022-10-23T03:37:06.537Z,90.40
2022-10-23T03:40:28.273Z,90.25
2022-10-23T03:43:50.013Z,90.05
2022-10-23T03:47:12.874Z,89.84
2022-10-23T03:50:37.039Z,90.17
2022-10-23T03:54:00.208Z,89.69
2022-10-23T03:57:21.621Z,89.43
2022-10-23T04:04:12.423Z,89.33
2022-10-23T04:07:36.524Z,89.34
2022-10-23T04:10:58.811Z,89.56
2022-10-23T04:14:29.443Z,88.61
2022-10-23T04:17:51.371Z,88.78
2022-10-23T04:21:15.649Z,88.63
2022-10-23T04:24:36.842Z,89.09
2022-10-23T04:27:58.487Z,89.00
2022-10-23T04:31:20.115Z,89.03
2022-10-23T04:34:41.782Z,88.83
2022-10-23T04:38:04.889Z,88.94
2022-10-23T04:41:26.649Z,88.73
2022-10-23T04:44:48.388Z,88.55
2022-10-23T04:48:10.316Z,88.67
2022-10-23T04:51:49.661Z,88.83
2022-10-23T04:55:30.692Z,88.39
2022-10-23T04:59:06.713Z,88.04
2022-10-23T05:02:28.885Z,87.79
2022-10-23T05:05:50.563Z,87.41
2022-10-23T05:09:30.611Z,87.37
2022-10-23T05:13:06.203Z,87.23
2022-10-23T05:16:37.967Z,87.04
2022-10-23T05:20:02.910Z,87.33
2022-10-23T05:23:26.335Z,87.09
2022-10-23T05:26:52.895Z,87.38
2022-10-23T05:30:17.185Z,87.34
2022-10-23T05:33:41.008Z,86.99
2022-10-23T05:37:03.493Z,86.62
2022-10-23T05:40:30.268Z,86.34
2022-10-23T05:43:57.844Z,86.80
2022-10-23T05:47:40.266Z,86.75
2022-10-23T05:51:24.998Z,86.62
2022-10-23T05:55:11.525Z,86.32
2022-10-23T05:58:43.252Z,85.96
2022-10-23T06:02:40.318Z,86.14
2022-10-23T06:06:15.522Z,86.09
2022-10-23T06:09:42.964Z,86.02
2022-10-23T06:13:05.207Z,86.26
2022-10-23T06:16:28.285Z,86.15
2022-10-23T06:19:51.306Z,85.99
2022-10-23T06:23:13.406Z,85.99
2022-10-23T06:26:54.290Z,87.20
2022-10-23T06:30:27.074Z,87.50
2022-10-23T06:33:50.723Z,88.03
2022-10-23T06:37:13.913Z,88.26
2022-10-23T06:40:54.329Z,88.46
2022-10-23T06:44:23.900Z,88.81
2022-10-23T06:47:54.107Z,88.86
2022-10-23T06:51:34.719Z,89.28
2022-10-23T06:54:59.365Z,88.33
2022-10-23T06:58:28.641Z,88.66
2022-10-23T07:02:03.391Z,89.33
2022-10-23T07:05:25.750Z,89.70
2022-10-23T07:08:48.410Z,89.71
2022-10-23T07:12:36.683Z,89.53
2022-10-23T07:20:09.821Z,89.54
2022-10-23T07:23:32.025Z,90.36
2022-10-23T07:26:54.668Z,90.43
2022-10-23T07:30:22.663Z,89.61
2022-10-23T07:33:48.915Z,89.95
2022-10-23T07:37:13.868Z,90.13
2022-10-23T07:40:36.939Z,90.64
2022-10-23T07:43:59.463Z,91.55
2022-10-23T07:47:24.285Z,91.90
2022-10-23T07:50:47.020Z,91.99
2022-10-23T07:54:11.063Z,92.07
2022-10-23T07:57:51.660Z,92.67
2022-10-23T08:01:34.604Z,92.84
2022-10-23T08:04:58.040Z,92.80
2022-10-23T08:08:29.779Z,92.42
2022-10-23T08:11:58.259Z,92.84
2022-10-23T08:15:22.981Z,92.06
2022-10-23T08:18:54.319Z,92.48
2022-10-23T08:22:22.797Z,92.42
2022-10-23T08:25:48.443Z,92.42
2022-10-23T08:29:12.811Z,92.07
2022-10-23T08:32:56.024Z,92.17
2022-10-23T08:36:19.660Z,92.27
2022-10-23T08:39:43.298Z,92.31
2022-10-23T08:43:18.803Z,92.11
2022-10-23T08:47:01.709Z,92.48
2022-10-23T08:51:01.107Z,92.17
2022-10-23T08:54:27.607Z,92.77
2022-10-23T08:58:00.456Z,93.21
2022-10-23T09:01:32.455Z,93.68
2022-10-23T09:04:56.510Z,93.41
2022-10-23T09:08:33.553Z,93.41
2022-10-23T09:12:05.153Z,93.63
2022-10-23T09:15:32.491Z,93.65
2022-10-23T09:18:56.210Z,93.25
2022-10-23T09:22:18.200Z,93.95
2022-10-23T09:25:43.803Z,93.44
2022-10-23T09:29:19.569Z,93.61
2022-10-23T09:32:47.862Z,93.48
2022-10-23T09:36:19.778Z,92.30
2022-10-23T09:43:28.428Z,91.69
2022-10-23T09:47:01.581Z,92.63
2022-10-23T09:50:25.070Z,92.63
2022-10-23T09:53:54.765Z,92.91
2022-10-23T09:57:23.890Z,92.05
2022-10-23T10:00:52.276Z,91.77
2022-10-23T10:04:38.270Z,89.09
2022-10-23T10:08:22.626Z,88.28
2022-10-23T10:11:50.314Z,88.96
2022-10-23T10:15:22.265Z,87.45
2022-10-23T10:18:57.315Z,88.18
2022-10-23T10:22:32.385Z,86.99
2022-10-23T10:26:03.379Z,85.44
2022-10-23T10:29:43.175Z,85.23
2022-10-23T10:33:16.029Z,84.44
2022-10-23T10:36:48.847Z,81.72
2022-10-23T10:40:21.970Z,81.95
2022-10-23T10:43:55.824Z,79.82
2022-10-23T10:47:24.417Z,79.86
2022-10-23T10:50:52.535Z,78.71
2022-10-23T10:54:37.693Z,79.04
2022-10-23T10:58:05.385Z,78.30
2022-10-23T11:01:34.301Z,77.54
2022-10-23T11:05:04.064Z,76.95
2022-10-23T11:08:44.526Z,76.23
2022-10-23T11:12:27.412Z,76.46
2022-10-23T11:19:25.236Z,76.93
2022-10-23T11:22:56.697Z,76.25
2022-10-23T11:26:42.827Z,76.06
2022-10-23T11:30:24.102Z,75.28
2022-10-23T11:34:06.499Z,74.62
2022-10-23T11:37:30.828Z,74.77
2022-10-23T11:40:57.088Z,74.31
2022-10-23T11:44:29.485Z,73.84
2022-10-23T11:47:59.511Z,73.96
2022-10-23T11:51:31.515Z,74.23
2022-10-23T11:55:07.402Z,73.20
2022-10-23T11:58:41.858Z,72.79
2022-10-23T12:02:22.878Z,72.93
2022-10-23T12:05:46.244Z,72.63
2022-10-23T12:09:23.836Z,72.32
2022-10-23T12:12:57.501Z,72.71
2022-10-23T12:16:20.175Z,71.70
2022-10-23T12:19:51.459Z,71.96
2022-10-23T12:23:37.211Z,71.56
2022-10-23T12:27:09.163Z,71.21
2022-10-23T12:30:47.666Z,71.84
2022-10-23T12:34:24.286Z,71.35
2022-10-23T12:38:01.077Z,70.97
2022-10-23T12:41:28.512Z,70.51
2022-10-23T12:45:00.516Z,70.81
2022-10-23T12:48:27.744Z,70.68
2022-10-23T12:51:57.952Z,70.92
2022-10-23T12:55:20.309Z,70.85
2022-10-23T12:58:48.975Z,71.21
2022-10-23T13:02:22.998Z,71.23
2022-10-23T13:05:46.378Z,70.79
2022-10-23T13:09:20.709Z,70.65
2022-10-23T13:12:57.980Z,70.14
2022-10-23T13:16:21.677Z,69.92
2022-10-23T13:19:43.252Z,70.59
2022-10-23T13:23:17.925Z,70.26
2022-10-23T13:26:45.127Z,69.53
2022-10-23T13:30:31.122Z,69.62
2022-10-23T13:34:05.395Z,69.96
2022-10-23T13:37:30.891Z,69.59
2022-10-23T13:40:59.226Z,69.86
2022-10-23T13:44:23.019Z,69.35
2022-10-23T13:47:45.210Z,69.51
2022-10-23T13:51:13.675Z,69.90
2022-10-23T13:54:35.114Z,69.83
2022-10-23T13:57:59.392Z,70.33
2022-10-23T14:01:24.305Z,70.47
2022-10-23T14:04:46.350Z,70.85
2022-10-23T14:08:08.440Z,71.59
2022-10-23T14:11:30.770Z,71.42
2022-10-23T14:14:54.249Z,71.56
2022-10-23T14:18:16.222Z,72.40
2022-10-23T14:21:38.069Z,72.93
2022-10-23T14:24:59.401Z,72.52
2022-10-23T14:28:21.669Z,72.93
2022-10-23T14:31:44.307Z,72.70
2022-10-23T14:35:06.772Z,73.15
2022-10-23T14:38:28.669Z,72.89
2022-10-23T14:41:50.254Z,73.25
2022-10-23T14:45:12.116Z,73.40
2022-10-23T14:48:37.637Z,73.80
2022-10-23T14:51:59.161Z,74.12
2022-10-23T14:55:20.684Z,75.28
2022-10-23T14:58:43.387Z,75.41
2022-10-23T15:02:05.157Z,75.95
2022-10-23T15:05:28.213Z,76.13
2022-10-23T15:08:50.721Z,76.82
2022-10-23T15:12:12.267Z,77.01
2022-10-23T15:15:33.612Z,77.81
2022-10-23T15:18:55.441Z,77.75
2022-10-23T15:22:19.538Z,77.99
2022-10-23T15:25:42.050Z,78.07
2022-10-23T15:29:03.890Z,78.37
2022-10-23T15:32:25.354Z,78.78
2022-10-23T15:35:46.999Z,78.94
2022-10-23T15:39:11.813Z,78.74
2022-10-23T15:42:33.591Z,78.64
2022-10-23T15:45:54.917Z,79.04
2022-10-23T15:49:16.549Z,78.94
2022-10-23T15:52:38.015Z,78.94
2022-10-23T15:56:01.094Z,79.08
2022-10-23T15:59:24.500Z,79.30
2022-10-23T16:02:46.437Z,79.48
2022-10-23T16:06:10.641Z,79.69
2022-10-23T16:09:35.020Z,79.81
2022-10-23T16:12:58.009Z,79.96
2022-10-23T16:16:19.752Z,80.06
2022-10-23T16:19:41.536Z,80.31
2022-10-23T16:23:02.967Z,79.96
2022-10-23T16:26:24.808Z,79.98
2022-10-23T16:29:47.960Z,79.82
2022-10-23T16:33:09.596Z,80.03
2022-10-23T16:36:31.350Z,80.65
2022-10-23T16:40:04.989Z,80.65
2022-10-23T16:43:44.965Z,80.81
2022-10-23T16:47:22.212Z,80.62
2022-10-23T16:50:43.396Z,81.25
2022-10-23T16:54:05.348Z,81.51
2022-10-23T16:57:27.979Z,81.90
2022-10-23T17:00:57.022Z,81.80
2022-10-23T17:04:20.017Z,81.93
2022-10-23T17:07:41.903Z,82.38
2022-10-23T17:11:08.639Z,82.42
2022-10-23T17:14:30.087Z,82.45
2022-10-23T17:17:51.748Z,82.46
2022-10-23T17:21:16.054Z,82.33
2022-10-23T17:24:37.665Z,82.33
2022-10-23T17:27:59.199Z,82.15
2022-10-23T17:31:22.552Z,82.07
2022-10-23T17:34:43.745Z,82.19
2022-10-23T17:38:06.846Z,82.39
2022-10-23T17:41:28.626Z,82.29
2022-10-23T17:44:50.348Z,82.29
2022-10-23T17:48:13.041Z,82.53
2022-10-23T17:51:36.352Z,82.25
2022-10-23T17:54:59.124Z,82.33
2022-10-23T17:58:20.462Z,82.67
2022-10-23T18:01:43.877Z,82.39
2022-10-23T18:05:06.357Z,82.40
2022-10-23T18:08:27.946Z,82.40
2022-10-23T18:11:51.656Z,82.40
2022-10-23T18:15:13.144Z,82.21
2022-10-23T18:18:35.602Z,82.37
2022-10-23T18:21:57.583Z,82.14
2022-10-23T18:25:19.815Z,81.93
2022-10-23T18:28:42.551Z,81.99
2022-10-23T18:32:04.206Z,81.79
2022-10-23T18:35:26.193Z,82.02
2022-10-23T18:38:47.692Z,81.68
2022-10-23T18:42:09.322Z,81.86
2022-10-23T18:45:32.731Z,81.41
2022-10-23T18:48:54.708Z,81.30
2022-10-23T18:52:16.101Z,81.15
2022-10-23T18:55:37.556Z,81.14
2022-10-23T18:59:00.601Z,80.91
2022-10-23T19:02:23.773Z,81.74
2022-10-23T19:05:46.787Z,81.70
2022-10-23T19:09:10.351Z,81.49
2022-10-23T19:12:31.796Z,81.08
2022-10-23T19:15:53.799Z,80.86
2022-10-23T19:19:20.957Z,80.86
2022-10-23T19:22:44.356Z,80.42
2022-10-23T19:26:08.836Z,80.70
2022-10-23T19:29:30.997Z,80.30
2022-10-23T19:32:52.514Z,80.43
2022-10-23T19:36:17.554Z,80.07
2022-10-23T19:39:40.317Z,80.12
2022-10-23T19:43:01.904Z,80.33
2022-10-23T19:46:23.623Z,81.04
2022-10-23T19:49:45.612Z,80.93
2022-10-23T19:53:08.906Z,81.36
2022-10-23T19:56:30.183Z,81.35
2022-10-23T19:59:52.619Z,81.41
2022-10-23T20:03:14.455Z,81.24
2022-10-23T20:06:37.561Z,80.76
2022-10-23T20:10:00.922Z,81.25
2022-10-23T20:13:23.130Z,81.44
2022-10-23T20:16:47.099Z,82.06
2022-10-23T20:20:09.480Z,81.83
2022-10-23T20:23:30.926Z,82.25
2022-10-23T20:26:56.058Z,81.86
2022-10-23T20:30:17.633Z,82.36
2022-10-23T20:33:40.565Z,82.22
2022-10-23T20:37:02.169Z,81.61
2022-10-23T20:40:23.987Z,81.78
2022-10-23T20:43:46.823Z,82.29
2022-10-23T20:47:08.415Z,82.04
2022-10-23T20:50:30.362Z,82.52
2022-10-23T20:53:54.539Z,82.52
2022-10-23T20:57:19.161Z,83.16
2022-10-23T21:00:44.084Z,83.63
2022-10-23T21:04:06.231Z,83.93
2022-10-23T21:07:27.800Z,83.56
2022-10-23T21:10:49.225Z,84.06
2022-10-23T21:14:10.745Z,83.86
2022-10-23T21:17:36.004Z,83.63
2022-10-23T21:20:57.869Z,83.92
2022-10-23T21:24:19.275Z,83.69
2022-10-23T21:27:40.691Z,84.36
2022-10-23T21:31:06.999Z,83.66
2022-10-23T21:34:30.285Z,83.83
2022-10-23T21:37:52.058Z,83.92
2022-10-23T21:41:15.290Z,83.99
2022-10-23T21:44:37.160Z,83.98
2022-10-23T21:47:58.854Z,84.30
2022-10-23T21:51:24.588Z,84.68
2022-10-23T21:54:46.221Z,84.73
2022-10-23T21:58:07.962Z,85.05
2022-10-23T22:01:30.318Z,84.16
2022-10-23T22:04:51.759Z,84.67
2022-10-23T22:08:14.821Z,84.21
2022-10-23T22:11:36.706Z,83.90
2022-10-23T22:14:58.377Z,83.99
2022-10-23T22:18:20.094Z,84.12
2022-10-23T22:21:41.783Z,84.68
2022-10-23T22:25:05.567Z,84.76
2022-10-23T22:28:27.006Z,84.48
2022-10-23T22:31:50.128Z,84.70
2022-10-23T22:35:11.999Z,85.26
2022-10-23T22:38:33.255Z,85.35
2022-10-23T22:41:56.027Z,86.02
2022-10-23T22:45:18.024Z,85.63
2022-10-23T22:48:39.587Z,85.91
2022-10-23T22:52:01.232Z,85.55
2022-10-23T22:55:22.458Z,86.04
2022-10-23T22:58:45.858Z,85.48
2022-10-23T23:02:08.236Z,85.03
2022-10-23T23:05:29.975Z,85.28
2022-10-23T23:08:52.624Z,84.61
2022-10-23T23:12:15.513Z,83.69
2022-10-23T23:15:41.998Z,83.70
2022-10-23T23:19:05.546Z,82.84
2022-10-23T23:25:53.438Z,82.20
2022-10-23T23:29:14.679Z,81.84
2022-10-23T23:32:37.576Z,81.01
2022-10-23T23:35:58.976Z,81.41
2022-10-23T23:39:20.704Z,81.21
2022-10-23T23:42:42.756Z,80.28
2022-10-23T23:46:04.385Z,80.25
2022-10-23T23:49:27.608Z,80.36
2022-10-23T23:52:49.141Z,80.63
2022-10-23T23:56:10.993Z,79.81
2022-10-23T23:59:36.990Z,80.03
